Time;durP1;ratioP1;P1;durP2;ratioP2;P2;SDS_P1;SDS_P2;PMS_P1;PMS_P2;Temp;Humidity;BMP_temperature;BMP_pressure;BME280_temperature;BME280_humidity;BME280_pressure;Samples;Min_cycle;Max_cycle;Signal;HPM_P1;HPM_P2
2023/06/08 00:01:57;;;;;;;;;5.50;5.00;;;;;;;;5011599;28;45501;-83
2023/06/08 00:04:22;;;;;;;;;6.00;5.33;;;;;;;;5011232;28;45567;-84
2023/06/08 00:06:49;;;;;;;;;10.50;6.25;;;;;;;;5011746;28;45358;-83
2023/06/08 00:09:15;;;;;;;;;5.50;5.50;;;;;;;;5012350;28;45504;-84
2023/06/08 00:11:41;;;;;;;;;9.50;6.00;;;;;;;;5011710;28;45605;-84
2023/06/08 00:14:06;;;;;;;;;7.00;5.00;;;;;;;;5010450;28;46453;-83
2023/06/08 00:16:32;;;;;;;;;9.00;6.00;;;;;;;;5011295;28;45442;-83
2023/06/08 00:18:58;;;;;;;;;6.50;6.00;;;;;;;;5011770;28;45507;-82
2023/06/08 00:21:23;;;;;;;;;7.00;6.00;;;;;;;;5011881;28;45425;-83
2023/06/08 00:23:49;;;;;;;;;7.00;5.00;;;;;;;;5011221;28;46167;-83
2023/06/08 00:26:15;;;;;;;;;5.75;4.25;;;;;;;;5010520;28;45353;-83
2023/06/08 00:28:40;;;;;;;;;6.00;6.00;;;;;;;;5011868;28;45445;-84
2023/06/08 00:31:05;;;;;;;;;9.00;6.33;;;;;;;;5011064;28;45370;-83
2023/06/08 00:33:30;;;;;;;;;7.00;4.33;;;;;;;;4993427;28;46470;-83
2023/06/08 00:35:58;;;;;;;;;8.00;6.00;;;;;;;;5012067;28;45369;-83
2023/06/08 00:38:23;;;;;;;;;7.00;5.75;;;;;;;;5012288;28;45417;-83
2023/06/08 00:40:48;;;;;;;;;7.00;5.67;;;;;;;;5010040;28;45509;-82
2023/06/08 00:43:13;;;;;;;;;5.75;5.50;;;;;;;;5011477;28;46291;-83
2023/06/08 00:45:39;;;;;;;;;9.00;6.00;;;;;;;;5014273;28;47259;-83
2023/06/08 00:48:04;;;;;;;;;11.33;6.33;;;;;;;;5030186;28;45562;-83
2023/06/08 00:50:30;;;;;;;;;8.33;5.00;;;;;;;;5031538;28;46457;-83
2023/06/08 00:52:56;;;;;;;;;8.50;5.75;;;;;;;;5031535;28;45533;-83
2023/06/08 00:55:21;;;;;;;;;9.50;7.25;;;;;;;;5029680;28;45515;-83
2023/06/08 00:57:50;;;;;;;;;7.25;6.00;;;;;;;;5031375;28;45522;-83
2023/06/08 01:00:15;;;;;;;;;9.00;7.25;;;;;;;;5030476;28;45602;-84
2023/06/08 01:02:41;;;;;;;;;6.00;3.00;;;;;;;;5029933;28;46202;-83
2023/06/08 01:05:07;;;;;;;;;8.00;8.00;;;;;;;;5029320;28;45396;-83
2023/06/08 01:07:35;;;;;;;;;7.75;6.00;;;;;;;;5033246;28;45499;-84
2023/06/08 01:10:08;;;;;;;;;4.00;4.00;;;;;;;;5033084;28;45443;-83
2023/06/08 01:12:50;;;;;;;;;10.50;5.50;;;;;;;;5032168;28;47058;-84
2023/06/08 01:15:25;;;;;;;;;7.25;5.50;;;;;;;;5030890;28;45439;-83
2023/06/08 01:17:57;;;;;;;;;7.75;7.00;;;;;;;;5033537;28;45384;-82
2023/06/08 01:20:37;;;;;;;;;8.00;5.50;;;;;;;;5033725;28;45562;-83
2023/06/08 01:23:03;;;;;;;;;10.00;8.00;;;;;;;;5033192;28;45667;-82
2023/06/08 01:25:29;;;;;;;;;11.00;7.00;;;;;;;;5033079;28;45353;-83
2023/06/08 01:28:12;;;;;;;;;8.25;6.25;;;;;;;;5034595;28;45732;-83
2023/06/08 01:30:37;;;;;;;;;5.25;5.00;;;;;;;;5036848;28;45321;-83
2023/06/08 01:33:02;;;;;;;;;6.67;5.00;;;;;;;;5036855;28;47402;-82
2023/06/08 01:35:28;;;;;;;;;10.00;8.00;;;;;;;;5034757;28;45349;-83
2023/06/08 01:37:56;;;;;;;;;8.25;6.25;;;;;;;;5035919;28;45435;-83
2023/06/08 01:40:26;;;;;;;;;8.50;6.50;;;;;;;;5036303;28;45497;-83
2023/06/08 01:42:53;;;;;;;;;10.25;7.25;;;;;;;;5036010;28;46077;-83
2023/06/08 01:45:21;;;;;;;;;8.75;6.00;;;;;;;;5035784;28;45402;-83
2023/06/08 01:47:47;;;;;;;;;8.50;7.00;;;;;;;;5036613;28;45562;-83
2023/06/08 01:50:13;;;;;;;;;8.25;7.00;;;;;;;;5036214;28;45572;-83
2023/06/08 01:52:43;;;;;;;;;10.00;7.25;;;;;;;;5035350;28;47374;-84
2023/06/08 01:55:19;;;;;;;;;7.00;6.00;;;;;;;;5035496;28;45495;-84
2023/06/08 01:57:44;;;;;;;;;5.00;5.00;;;;;;;;5036963;28;45654;-82
2023/06/08 02:00:14;;;;;;;;;9.25;7.00;;;;;;;;5036387;28;45435;-83
2023/06/08 02:02:40;;;;;;;;;9.25;7.00;;;;;;;;5036246;28;46410;-83
2023/06/08 02:05:10;;;;;;;;;6.00;5.75;;;;;;;;5035573;28;45484;-84
2023/06/08 02:07:36;;;;;;;;;10.00;6.00;;;;;;;;5036024;28;45432;-83
2023/06/08 02:10:02;;;;;;;;;8.00;6.75;;;;;;;;5036770;28;45584;-83
2023/06/08 02:12:27;;;;;;;;;10.00;6.00;;;;;;;;5035775;28;45677;-83
2023/06/08 02:14:53;;;;;;;;;8.67;7.00;;;;;;;;5036017;28;45670;-83
2023/06/08 02:17:26;;;;;;;;;10.33;6.33;;;;;;;;5035679;28;45412;-84
2023/06/08 02:19:52;;;;;;;;;10.00;6.00;;;;;;;;5036193;28;45428;-83
2023/06/08 02:22:17;;;;;;;;;9.50;6.25;;;;;;;;5033552;28;46951;-84
2023/06/08 02:24:42;;;;;;;;;7.67;7.00;;;;;;;;5035424;28;45532;-82
2023/06/08 02:27:08;;;;;;;;;10.33;7.00;;;;;;;;5067869;28;45439;-83
2023/06/08 02:29:35;;;;;;;;;7.75;5.50;;;;;;;;5036125;28;45287;-84
2023/06/08 02:32:00;;;;;;;;;11.00;6.75;;;;;;;;5035894;28;47450;-83
2023/06/08 02:34:25;;;;;;;;;9.00;7.00;;;;;;;;5035743;28;45409;-84
2023/06/08 02:36:51;;;;;;;;;8.00;7.00;;;;;;;;5035040;28;45325;-82
2023/06/08 02:39:16;;;;;;;;;7.00;7.00;;;;;;;;5034998;28;45607;-83
2023/06/08 02:41:41;;;;;;;;;7.67;7.00;;;;;;;;5035194;28;47295;-83
2023/06/08 02:44:06;;;;;;;;;11.00;6.67;;;;;;;;5035547;28;45352;-83
2023/06/08 02:46:32;;;;;;;;;6.67;6.67;;;;;;;;5035423;28;45348;-83
2023/06/08 02:48:58;;;;;;;;;7.25;5.50;;;;;;;;5034696;28;45428;-82
2023/06/08 02:51:23;;;;;;;;;7.25;7.00;;;;;;;;5034333;28;46396;-83
2023/06/08 02:53:48;;;;;;;;;7.33;6.33;;;;;;;;5033813;28;45454;-82
2023/06/08 02:56:13;;;;;;;;;7.00;6.33;;;;;;;;5035128;28;45473;-83
2023/06/08 02:58:41;;;;;;;;;8.33;6.67;;;;;;;;5035374;28;45395;-83
2023/06/08 03:01:14;;;;;;;;;9.00;7.50;;;;;;;;5035230;28;47267;-84
2023/06/08 03:03:40;;;;;;;;;8.25;6.50;;;;;;;;5035860;28;45435;-83
2023/06/08 03:06:05;;;;;;;;;7.50;6.50;;;;;;;;5035731;28;45393;-82
2023/06/08 03:08:30;;;;;;;;;6.00;5.33;;;;;;;;5036588;28;45352;-83
2023/06/08 03:10:55;;;;;;;;;9.00;7.00;;;;;;;;5036043;28;45345;-83
2023/06/08 03:13:21;;;;;;;;;8.33;6.67;;;;;;;;5035678;28;45457;-83
2023/06/08 03:15:47;;;;;;;;;8.00;6.50;;;;;;;;5036169;28;45348;-83
2023/06/08 03:18:12;;;;;;;;;7.25;5.00;;;;;;;;5036265;28;45498;-83
2023/06/08 03:20:37;;;;;;;;;11.00;7.00;;;;;;;;5035180;28;45587;-83
2023/06/08 03:23:04;;;;;;;;;8.33;6.67;;;;;;;;5035644;28;45383;-82
2023/06/08 03:25:29;;;;;;;;;9.75;7.00;;;;;;;;5035990;28;45400;-83
2023/06/08 03:27:55;;;;;;;;;9.00;5.00;;;;;;;;5036110;28;45305;-82
2023/06/08 03:30:20;;;;;;;;;5.67;5.33;;;;;;;;5035935;28;46417;-83
2023/06/08 03:32:48;;;;;;;;;9.33;7.00;;;;;;;;5035933;28;45369;-83
2023/06/08 03:35:14;;;;;;;;;12.50;7.50;;;;;;;;5035795;28;45369;-82
2023/06/08 03:37:39;;;;;;;;;7.50;6.00;;;;;;;;5035437;28;45516;-83
2023/06/08 03:40:06;;;;;;;;;11.33;6.33;;;;;;;;5035103;28;45458;-83
2023/06/08 03:42:32;;;;;;;;;6.25;6.25;;;;;;;;5033166;28;45898;-82
2023/06/08 03:44:57;;;;;;;;;9.25;8.25;;;;;;;;5032641;28;45486;-84
2023/06/08 03:47:22;;;;;;;;;8.33;7.00;;;;;;;;5035392;28;45471;-83
2023/06/08 03:49:48;;;;;;;;;9.33;8.00;;;;;;;;5032270;28;46904;-83
2023/06/08 03:52:13;;;;;;;;;12.00;7.33;;;;;;;;5034016;28;45631;-83
2023/06/08 03:54:38;;;;;;;;;13.00;9.67;;;;;;;;5034196;28;45511;-83
2023/06/08 03:57:03;;;;;;;;;10.67;7.67;;;;;;;;5033748;28;45321;-83
2023/06/08 03:59:28;;;;;;;;;6.75;6.50;;;;;;;;5034471;28;46643;-83
2023/06/08 04:01:54;;;;;;;;;11.33;7.00;;;;;;;;5033057;28;45412;-83
2023/06/08 04:04:20;;;;;;;;;13.25;8.75;;;;;;;;5032904;28;45439;-83
2023/06/08 04:06:45;;;;;;;;;10.00;7.00;;;;;;;;5034762;28;45475;-83
2023/06/08 04:09:11;;;;;;;;;9.00;8.00;;;;;;;;5033455;28;45458;-83
2023/06/08 04:11:37;;;;;;;;;8.50;8.50;;;;;;;;5033742;28;45427;-83
2023/06/08 04:14:03;;;;;;;;;6.75;5.25;;;;;;;;5032469;28;45602;-83
2023/06/08 04:16:28;;;;;;;;;10.00;8.25;;;;;;;;5033838;28;45527;-83
2023/06/08 04:18:54;;;;;;;;;11.33;8.33;;;;;;;;5032920;28;46638;-81
2023/06/08 04:21:20;;;;;;;;;8.00;5.33;;;;;;;;5033338;28;45430;-83
2023/06/08 04:23:46;;;;;;;;;8.75;7.25;;;;;;;;5033887;28;45455;-83
2023/06/08 04:26:12;;;;;;;;;13.00;9.00;;;;;;;;5033253;28;45534;-83
2023/06/08 04:28:37;;;;;;;;;10.50;8.00;;;;;;;;5033428;28;47058;-84
2023/06/08 04:31:04;;;;;;;;;14.25;8.25;;;;;;;;5032942;28;45482;-83
2023/06/08 04:33:30;;;;;;;;;12.75;8.50;;;;;;;;5032354;28;45458;-83
2023/06/08 04:35:57;;;;;;;;;9.75;8.75;;;;;;;;5033258;28;45529;-83
2023/06/08 04:38:22;;;;;;;;;11.75;9.00;;;;;;;;5033173;28;47270;-84
2023/06/08 04:40:54;;;;;;;;;13.67;9.00;;;;;;;;5032792;28;45719;-83
2023/06/08 04:43:25;;;;;;;;;8.75;8.25;;;;;;;;5032953;28;45566;-83
2023/06/08 04:45:55;;;;;;;;;12.75;9.00;;;;;;;;5033643;28;45676;-82
2023/06/08 04:48:20;;;;;;;;;10.25;8.75;;;;;;;;5032992;28;46123;-82
2023/06/08 04:50:46;;;;;;;;;10.50;7.00;;;;;;;;5033210;28;45583;-83
2023/06/08 04:53:11;;;;;;;;;11.00;9.33;;;;;;;;5033048;28;45341;-83
2023/06/08 04:55:37;;;;;;;;;16.75;10.75;;;;;;;;5034010;28;45333;-84
2023/06/08 04:58:02;;;;;;;;;8.67;8.00;;;;;;;;5033256;28;45469;-83
2023/06/08 05:00:27;;;;;;;;;11.75;8.75;;;;;;;;5033487;28;45405;-83
2023/06/08 05:02:52;;;;;;;;;10.00;8.33;;;;;;;;5036015;28;45466;-83
2023/06/08 05:05:18;;;;;;;;;14.33;12.00;;;;;;;;5036853;28;45486;-83
2023/06/08 05:07:43;;;;;;;;;15.00;10.33;;;;;;;;5035104;28;48404;-83
2023/06/08 05:10:08;;;;;;;;;14.67;10.33;;;;;;;;5037544;28;45424;-82
2023/06/08 05:12:33;;;;;;;;;9.25;9.25;;;;;;;;5038250;28;45396;-83
2023/06/08 05:14:59;;;;;;;;;12.67;9.33;;;;;;;;5037286;28;45524;-83
2023/06/08 05:17:24;;;;;;;;;13.25;10.00;;;;;;;;5036840;28;45485;-83
2023/06/08 05:19:50;;;;;;;;;15.00;9.25;;;;;;;;5037136;28;45427;-84
2023/06/08 05:22:15;;;;;;;;;9.00;8.00;;;;;;;;5036726;28;45428;-84
2023/06/08 05:24:40;;;;;;;;;11.00;10.00;;;;;;;;5037839;28;45451;-84
2023/06/08 05:27:06;;;;;;;;;14.00;11.33;;;;;;;;5036652;28;46241;-83
2023/06/08 05:29:31;;;;;;;;;14.00;10.67;;;;;;;;5038402;28;45325;-83
2023/06/08 05:31:56;;;;;;;;;15.67;11.33;;;;;;;;5040607;28;45327;-83
2023/06/08 05:34:21;;;;;;;;;16.50;14.00;;;;;;;;5038396;28;45465;-84
2023/06/08 05:36:46;;;;;;;;;14.67;10.33;;;;;;;;5041313;28;45426;-87
2023/06/08 05:39:12;;;;;;;;;18.33;12.00;;;;;;;;5055436;28;45546;-88
2023/06/08 05:41:37;;;;;;;;;13.00;9.67;;;;;;;;5050299;28;45328;-87
2023/06/08 05:44:02;;;;;;;;;16.25;12.00;;;;;;;;5043367;28;45474;-87
2023/06/08 05:46:27;;;;;;;;;17.00;12.00;;;;;;;;5056733;28;46078;-87
2023/06/08 05:48:53;;;;;;;;;15.33;12.67;;;;;;;;5053410;28;45345;-89
2023/06/08 05:51:18;;;;;;;;;16.33;11.00;;;;;;;;5042174;28;45306;-90
2023/06/08 05:53:43;;;;;;;;;17.67;13.00;;;;;;;;5060469;28;45296;-91
2023/06/08 05:56:09;;;;;;;;;20.00;14.50;;;;;;;;5059014;28;47001;-89
2023/06/08 05:58:34;;;;;;;;;15.75;13.00;;;;;;;;5060245;28;45318;-93
2023/06/08 06:01:03;;;;;;;;;18.00;14.00;;;;;;;;5059613;28;45554;-91
2023/06/08 06:03:29;;;;;;;;;21.00;11.75;;;;;;;;5058203;28;45379;-85
2023/06/08 06:05:54;;;;;;;;;14.67;10.67;;;;;;;;5039683;28;46227;-88
2023/06/08 06:08:19;;;;;;;;;17.75;9.00;;;;;;;;5051263;28;45372;-85
2023/06/08 06:10:45;;;;;;;;;12.00;9.25;;;;;;;;5000376;28;45374;-86
2023/06/08 06:13:10;;;;;;;;;13.00;12.67;;;;;;;;5023207;28;45400;-86
2023/06/08 06:15:35;;;;;;;;;15.25;10.00;;;;;;;;5037068;28;46210;-86
2023/06/08 06:18:00;;;;;;;;;9.67;9.67;;;;;;;;5037803;28;45454;-86
2023/06/08 06:20:27;;;;;;;;;16.75;12.25;;;;;;;;5037828;28;45365;-86
2023/06/08 06:22:52;;;;;;;;;13.00;12.00;;;;;;;;5037794;28;45401;-86
2023/06/08 06:25:17;;;;;;;;;12.75;11.00;;;;;;;;5037335;28;45503;-86
2023/06/08 06:27:43;;;;;;;;;16.00;11.33;;;;;;;;5037430;28;45342;-87
2023/06/08 06:30:08;;;;;;;;;15.33;12.33;;;;;;;;5037119;28;45397;-87
2023/06/08 06:32:33;;;;;;;;;13.50;10.75;;;;;;;;5037617;28;45402;-86
2023/06/08 06:34:58;;;;;;;;;20.33;13.33;;;;;;;;5035652;28;45958;-86
2023/06/08 06:37:24;;;;;;;;;18.33;12.67;;;;;;;;5039885;28;45350;-84
2023/06/08 06:39:49;;;;;;;;;15.67;12.00;;;;;;;;5049132;28;45400;-85
2023/06/08 06:42:15;;;;;;;;;16.00;11.25;;;;;;;;5037521;28;45450;-86
2023/06/08 06:44:40;;;;;;;;;14.00;11.50;;;;;;;;5037479;28;46194;-85
2023/06/08 06:47:05;;;;;;;;;15.00;12.00;;;;;;;;5055617;28;45281;-84
2023/06/08 06:49:30;;;;;;;;;17.67;12.33;;;;;;;;5055615;28;45250;-85
2023/06/08 06:51:56;;;;;;;;;16.00;11.67;;;;;;;;5053226;28;45281;-85
2023/06/08 06:54:21;;;;;;;;;16.00;11.75;;;;;;;;5037291;28;47047;-85
2023/06/08 06:56:46;;;;;;;;;20.00;12.00;;;;;;;;5038120;28;45773;-85
2023/06/08 06:59:12;;;;;;;;;20.33;13.67;;;;;;;;5036291;28;45255;-88
2023/06/08 07:01:37;;;;;;;;;14.25;11.25;;;;;;;;5036886;28;45500;-87
2023/06/08 07:04:06;;;;;;;;;16.75;12.00;;;;;;;;5036987;28;45619;-88
2023/06/08 07:06:31;;;;;;;;;18.50;13.50;;;;;;;;5036985;28;45405;-86
2023/06/08 07:08:57;;;;;;;;;19.75;14.25;;;;;;;;5035472;28;45547;-84
2023/06/08 07:11:22;;;;;;;;;15.25;10.25;;;;;;;;5037783;28;45564;-83
2023/06/08 07:13:48;;;;;;;;;16.25;12.25;;;;;;;;5030220;28;47430;-84
2023/06/08 07:16:13;;;;;;;;;18.00;13.50;;;;;;;;5032727;28;45432;-85
2023/06/08 07:18:39;;;;;;;;;19.33;13.00;;;;;;;;5038600;28;45397;-86
2023/06/08 07:21:04;;;;;;;;;17.25;14.00;;;;;;;;5034665;28;45503;-84
2023/06/08 07:23:29;;;;;;;;;18.00;15.67;;;;;;;;5034936;28;46935;-85
2023/06/08 07:25:55;;;;;;;;;15.67;13.33;;;;;;;;5029823;28;45571;-84
2023/06/08 07:28:20;;;;;;;;;16.00;13.75;;;;;;;;5035442;28;45313;-85
2023/06/08 07:30:45;;;;;;;;;16.33;11.67;;;;;;;;5026884;28;45314;-86
2023/06/08 07:33:10;;;;;;;;;13.33;12.00;;;;;;;;5035709;28;46406;-85
2023/06/08 07:35:35;;;;;;;;;14.33;13.67;;;;;;;;5035969;28;45326;-85
2023/06/08 07:38:01;;;;;;;;;13.33;10.67;;;;;;;;5035540;28;45668;-85
2023/06/08 07:40:26;;;;;;;;;23.25;13.50;;;;;;;;5027061;28;45356;-86
2023/06/08 07:42:51;;;;;;;;;16.33;13.67;;;;;;;;5032149;28;45636;-85
2023/06/08 07:45:17;;;;;;;;;20.67;13.33;;;;;;;;5028640;28;45537;-86
2023/06/08 07:47:42;;;;;;;;;22.00;14.25;;;;;;;;5021474;28;45370;-86
2023/06/08 07:50:07;;;;;;;;;18.33;13.67;;;;;;;;5049295;28;45326;-86
2023/06/08 07:52:33;;;;;;;;;18.00;11.50;;;;;;;;5055223;28;47612;-86
2023/06/08 07:54:58;;;;;;;;;16.33;13.33;;;;;;;;5037161;28;45562;-86
2023/06/08 07:57:23;;;;;;;;;15.25;13.25;;;;;;;;5055714;28;45424;-86
2023/06/08 07:59:48;;;;;;;;;17.00;15.33;;;;;;;;5055681;28;45452;-86
2023/06/08 08:02:14;;;;;;;;;17.75;15.25;;;;;;;;5047967;28;46670;-86
2023/06/08 08:04:39;;;;;;;;;19.33;13.00;;;;;;;;5034610;28;45492;-85
2023/06/08 08:07:04;;;;;;;;;15.67;13.00;;;;;;;;5039960;28;45336;-88
2023/06/08 08:09:29;;;;;;;;;13.25;10.25;;;;;;;;5041187;28;45386;-87
2023/06/08 08:11:55;;;;;;;;;18.33;12.33;;;;;;;;5039028;28;45653;-87
2023/06/08 08:14:20;;;;;;;;;11.00;10.00;;;;;;;;5030115;28;45913;-88
2023/06/08 08:16:45;;;;;;;;;9.67;4.33;;;;;;;;5041578;28;45718;-87
2023/06/08 08:19:10;;;;;;;;;17.67;12.33;;;;;;;;5033556;28;45600;-86
2023/06/08 08:21:36;;;;;;;;;15.75;12.00;;;;;;;;5031192;28;46278;-86
2023/06/08 08:24:01;;;;;;;;;23.00;16.00;;;;;;;;5051034;28;45988;-87
2023/06/08 08:26:28;;;;;;;;;16.67;13.00;;;;;;;;5038974;28;45371;-85
2023/06/08 08:28:53;;;;;;;;;17.25;12.00;;;;;;;;5046736;28;45436;-86
2023/06/08 08:31:19;;;;;;;;;14.00;12.33;;;;;;;;5037751;28;46122;-88
2023/06/08 08:33:44;;;;;;;;;15.33;13.00;;;;;;;;5038358;28;46566;-87
2023/06/08 08:36:09;;;;;;;;;14.75;12.25;;;;;;;;5047835;28;45340;-87
2023/06/08 08:38:35;;;;;;;;;21.75;12.75;;;;;;;;5037442;28;45495;-85
2023/06/08 08:41:03;;;;;;;;;18.50;12.00;;;;;;;;5043414;28;46198;-84
2023/06/08 08:43:47;;;;;;;;;13.50;10.00;;;;;;;;5045396;28;45850;-85
2023/06/08 08:46:13;;;;;;;;;16.00;10.75;;;;;;;;5019276;28;45572;-84
2023/06/08 08:48:42;;;;;;;;;14.50;11.50;;;;;;;;5034786;28;45483;-85
2023/06/08 08:51:09;;;;;;;;;13.50;11.75;;;;;;;;5034625;28;46288;-85
2023/06/08 08:53:35;;;;;;;;;16.25;11.50;;;;;;;;5034264;28;45609;-85
2023/06/08 08:56:03;;;;;;;;;14.75;10.50;;;;;;;;5023646;28;45456;-86
2023/06/08 08:58:30;;;;;;;;;18.25;12.25;;;;;;;;5034682;28;45356;-86
2023/06/08 09:00:55;;;;;;;;;11.00;9.00;;;;;;;;5036032;28;46128;-87
2023/06/08 09:03:20;;;;;;;;;12.50;9.75;;;;;;;;5032789;28;46669;-86
2023/06/08 09:05:45;;;;;;;;;11.67;11.67;;;;;;;;5034821;28;45440;-87
2023/06/08 09:08:11;;;;;;;;;12.67;10.00;;;;;;;;5032166;28;45609;-84
2023/06/08 09:10:36;;;;;;;;;13.00;11.50;;;;;;;;5032917;28;47404;-85
2023/06/08 09:13:02;;;;;;;;;13.25;9.25;;;;;;;;5025768;28;45478;-87
2023/06/08 09:15:28;;;;;;;;;21.00;12.75;;;;;;;;5021086;28;47972;-86
2023/06/08 09:17:58;;;;;;;;;13.25;11.25;;;;;;;;5035848;28;45439;-87
2023/06/08 09:20:31;;;;;;;;;15.75;12.00;;;;;;;;5018553;28;46755;-86
2023/06/08 09:22:56;;;;;;;;;15.00;10.75;;;;;;;;5034423;28;45864;-86
2023/06/08 09:25:36;;;;;;;;;10.75;9.75;;;;;;;;5034672;28;45348;-86
2023/06/08 09:28:15;;;;;;;;;9.50;9.50;;;;;;;;5033292;28;45503;-86
2023/06/08 09:30:40;;;;;;;;;17.25;10.50;;;;;;;;5028287;28;47423;-85
2023/06/08 09:33:20;;;;;;;;;12.75;10.00;;;;;;;;5032569;28;45430;-87
2023/06/08 09:35:45;;;;;;;;;11.75;9.25;;;;;;;;5034371;28;45486;-87
2023/06/08 09:38:18;;;;;;;;;17.50;13.00;;;;;;;;5033690;28;45533;-85
2023/06/08 09:40:44;;;;;;;;;13.75;8.50;;;;;;;;5032755;28;47208;-84
2023/06/08 09:43:09;;;;;;;;;11.75;9.25;;;;;;;;5035057;28;45434;-85
2023/06/08 09:45:42;;;;;;;;;15.67;10.00;;;;;;;;5021282;28;45465;-87
2023/06/08 09:48:11;;;;;;;;;12.50;9.25;;;;;;;;5033956;28;46022;-87
2023/06/08 09:50:36;;;;;;;;;10.00;7.50;;;;;;;;5037574;28;45693;-87
2023/06/08 09:53:02;;;;;;;;;12.00;9.00;;;;;;;;5037897;28;45578;-86
2023/06/08 09:55:27;;;;;;;;;11.50;8.75;;;;;;;;5038252;28;45503;-87
2023/06/08 09:57:53;;;;;;;;;13.00;8.25;;;;;;;;5037143;28;45363;-89
2023/06/08 10:00:23;;;;;;;;;11.25;9.00;;;;;;;;5037487;28;46579;-87
2023/06/08 10:03:08;;;;;;;;;9.75;8.50;;;;;;;;5026826;28;45354;-88
2023/06/08 10:05:35;;;;;;;;;10.00;9.00;;;;;;;;5030008;28;45356;-86
2023/06/08 10:08:02;;;;;;;;;13.25;9.75;;;;;;;;5036046;28;45434;-85
2023/06/08 10:10:37;;;;;;;;;10.00;9.00;;;;;;;;5036956;28;47201;-84
2023/06/08 10:13:04;;;;;;;;;17.00;10.00;;;;;;;;5037166;28;46829;-84
2023/06/08 10:15:30;;;;;;;;;11.00;8.00;;;;;;;;5039175;28;45506;-85
2023/06/08 10:17:57;;;;;;;;;12.00;9.00;;;;;;;;5052500;28;45462;-86
2023/06/08 10:20:23;;;;;;;;;9.00;8.00;;;;;;;;5027449;28;46312;-86
2023/06/08 10:22:49;;;;;;;;;10.75;8.50;;;;;;;;5037240;28;45773;-87
2023/06/08 10:25:16;;;;;;;;;10.00;9.50;;;;;;;;5037168;28;45293;-87
2023/06/08 10:27:51;;;;;;;;;11.50;8.50;;;;;;;;5051540;28;45579;-86
2023/06/08 10:30:27;;;;;;;;;10.50;8.25;;;;;;;;5057104;28;46385;-88
2023/06/08 10:32:52;;;;;;;;;13.75;9.00;;;;;;;;5054702;28;45824;-87
2023/06/08 10:35:18;;;;;;;;;9.00;8.50;;;;;;;;5036808;28;45479;-87
2023/06/08 10:37:47;;;;;;;;;9.00;7.00;;;;;;;;5037267;28;45359;-87
2023/06/08 10:40:12;;;;;;;;;7.00;7.00;;;;;;;;5053583;28;45581;-86
2023/06/08 10:42:49;;;;;;;;;8.25;7.50;;;;;;;;5042386;28;45342;-88
2023/06/08 10:45:15;;;;;;;;;9.00;7.25;;;;;;;;5048695;28;45394;-88
2023/06/08 10:47:42;;;;;;;;;8.75;7.25;;;;;;;;5032545;28;45415;-87
2023/06/08 10:50:09;;;;;;;;;10.50;8.00;;;;;;;;5038003;28;46178;-83
2023/06/08 10:52:42;;;;;;;;;7.75;6.75;;;;;;;;5049245;28;45666;-78
2023/06/08 10:55:08;;;;;;;;;11.00;7.75;;;;;;;;5031664;28;45538;-81
2023/06/08 10:57:34;;;;;;;;;13.00;9.50;;;;;;;;5037893;28;45452;-80
2023/06/08 11:00:00;;;;;;;;;10.00;8.00;;;;;;;;5028035;28;47973;-79
2023/06/08 11:02:28;;;;;;;;;10.50;9.75;;;;;;;;5035772;28;45511;-78
2023/06/08 11:04:53;;;;;;;;;13.25;9.50;;;;;;;;5027155;28;45416;-80
2023/06/08 11:07:22;;;;;;;;;9.00;7.75;;;;;;;;5035822;28;45471;-79
2023/06/08 11:09:47;;;;;;;;;11.00;9.00;;;;;;;;5035535;28;46927;-80
2023/06/08 11:12:13;;;;;;;;;7.00;6.50;;;;;;;;5034066;28;45331;-80
2023/06/08 11:14:38;;;;;;;;;13.33;9.00;;;;;;;;5035928;28;45541;-78
2023/06/08 11:17:03;;;;;;;;;14.67;10.67;;;;;;;;5034430;28;45392;-79
2023/06/08 11:19:30;;;;;;;;;10.67;8.00;;;;;;;;5035155;28;46002;-78
2023/06/08 11:21:55;;;;;;;;;11.50;9.75;;;;;;;;5035700;28;45884;-80
2023/06/08 11:24:25;;;;;;;;;10.50;7.50;;;;;;;;5035120;28;45535;-78
2023/06/08 11:26:55;;;;;;;;;10.50;8.50;;;;;;;;5034666;28;45657;-77
2023/06/08 11:29:20;;;;;;;;;9.00;8.75;;;;;;;;5035042;28;46509;-79
2023/06/08 11:31:45;;;;;;;;;6.50;6.00;;;;;;;;5035557;28;45356;-80
2023/06/08 11:34:12;;;;;;;;;11.00;7.00;;;;;;;;5033899;28;45339;-79
2023/06/08 11:36:38;;;;;;;;;9.75;8.00;;;;;;;;5034008;28;45483;-79
2023/06/08 11:39:05;;;;;;;;;12.75;9.00;;;;;;;;5032241;28;47057;-82
2023/06/08 11:41:30;;;;;;;;;11.00;7.75;;;;;;;;5035582;28;45470;-83
2023/06/08 11:46:44;;;;;;;;;7.75;5.75;;;;;;;;5041567;22;45642;-82
2023/06/08 11:49:10;;;;;;;;;9.75;7.75;;;;;;;;5035296;28;45979;-83
2023/06/08 11:51:46;;;;;;;;;7.00;6.25;;;;;;;;5035031;28;45552;-84
2023/06/08 11:54:11;;;;;;;;;8.25;7.00;;;;;;;;5034413;28;45373;-83
2023/06/08 11:56:37;;;;;;;;;9.33;6.33;;;;;;;;5034396;28;45543;-85
2023/06/08 11:59:03;;;;;;;;;10.00;8.00;;;;;;;;5027542;28;46640;-84
2023/06/08 12:01:29;;;;;;;;;7.00;6.50;;;;;;;;5032082;28;45490;-84
2023/06/08 12:03:54;;;;;;;;;7.67;7.00;;;;;;;;5016835;28;45385;-84
2023/06/08 12:06:24;;;;;;;;;8.33;6.00;;;;;;;;5033864;28;45499;-84
2023/06/08 12:08:49;;;;;;;;;6.00;5.50;;;;;;;;5033444;28;45782;-84
2023/06/08 12:11:15;;;;;;;;;9.33;8.67;;;;;;;;5034355;28;45338;-84
2023/06/08 12:13:40;;;;;;;;;10.00;7.67;;;;;;;;5034637;28;45705;-83
2023/06/08 12:16:07;;;;;;;;;8.50;6.50;;;;;;;;5033740;28;45542;-84
2023/06/08 12:18:39;;;;;;;;;10.50;6.25;;;;;;;;5033792;28;46246;-83
2023/06/08 12:21:05;;;;;;;;;6.50;5.00;;;;;;;;5012365;28;45702;-84
2023/06/08 12:23:30;;;;;;;;;8.00;5.50;;;;;;;;5035195;28;45294;-85
2023/06/08 12:25:56;;;;;;;;;8.67;6.00;;;;;;;;5034382;28;45333;-82
2023/06/08 12:28:22;;;;;;;;;7.00;5.75;;;;;;;;5033854;28;46305;-85
2023/06/08 12:30:48;;;;;;;;;7.50;6.00;;;;;;;;5049479;28;45538;-85
2023/06/08 12:33:17;;;;;;;;;7.00;6.00;;;;;;;;5027240;28;45396;-86
2023/06/08 12:35:42;;;;;;;;;7.75;5.50;;;;;;;;5035574;28;45766;-85
2023/06/08 12:38:08;;;;;;;;;6.00;5.25;;;;;;;;5034955;28;45480;-85
2023/06/08 12:40:33;;;;;;;;;7.75;5.75;;;;;;;;5035074;28;45405;-84
2023/06/08 12:42:58;;;;;;;;;5.67;5.00;;;;;;;;5035134;28;45345;-84
2023/06/08 12:45:23;;;;;;;;;8.00;6.00;;;;;;;;5035109;28;45792;-85
2023/06/08 12:47:49;;;;;;;;;6.25;4.00;;;;;;;;5035250;28;46198;-85
2023/06/08 12:50:17;;;;;;;;;8.00;5.00;;;;;;;;5015410;28;45437;-84
2023/06/08 12:52:42;;;;;;;;;8.75;7.50;;;;;;;;5029691;28;45479;-86
2023/06/08 12:55:08;;;;;;;;;4.25;3.25;;;;;;;;5016944;28;45762;-84
2023/06/08 12:57:34;;;;;;;;;7.00;5.75;;;;;;;;5034976;28;46963;-83
2023/06/08 12:59:59;;;;;;;;;6.00;5.75;;;;;;;;5032860;28;46025;-82
2023/06/08 13:02:25;;;;;;;;;7.00;6.00;;;;;;;;5032255;28;45480;-83
2023/06/08 13:04:51;;;;;;;;;7.00;5.50;;;;;;;;5027034;28;46006;-82
2023/06/08 13:07:16;;;;;;;;;7.50;7.00;;;;;;;;5032868;28;45917;-81
2023/06/08 13:09:42;;;;;;;;;6.00;5.33;;;;;;;;5048493;28;45541;-83
2023/06/08 13:12:07;;;;;;;;;7.25;6.50;;;;;;;;5034521;28;45258;-82
2023/06/08 13:14:33;;;;;;;;;6.00;5.00;;;;;;;;5034541;28;45603;-82
2023/06/08 13:16:59;;;;;;;;;4.00;4.00;;;;;;;;5036064;28;46362;-82
2023/06/08 13:19:24;;;;;;;;;8.00;5.75;;;;;;;;5036040;28;45813;-82
2023/06/08 13:21:49;;;;;;;;;7.33;7.33;;;;;;;;5034641;28;45309;-82
2023/06/08 13:24:15;;;;;;;;;9.00;6.33;;;;;;;;5031274;28;45540;-83
2023/06/08 13:26:40;;;;;;;;;4.67;4.67;;;;;;;;5033938;28;47206;-83
2023/06/08 13:29:05;;;;;;;;;7.00;5.00;;;;;;;;5019478;28;45533;-83
2023/06/08 13:31:30;;;;;;;;;5.33;4.67;;;;;;;;5048156;28;45427;-82
2023/06/08 13:33:56;;;;;;;;;6.33;6.33;;;;;;;;5033183;28;45430;-83
2023/06/08 13:36:21;;;;;;;;;7.25;6.00;;;;;;;;5023044;28;46108;-83
2023/06/08 13:38:46;;;;;;;;;6.75;5.00;;;;;;;;5034536;28;45390;-83
2023/06/08 13:41:12;;;;;;;;;9.00;7.33;;;;;;;;5028583;28;45603;-83
2023/06/08 13:43:37;;;;;;;;;5.67;5.67;;;;;;;;5041695;28;45420;-83
2023/06/08 13:46:03;;;;;;;;;9.00;6.33;;;;;;;;5029952;28;46932;-83
2023/06/08 13:48:29;;;;;;;;;6.25;6.00;;;;;;;;5036932;28;45558;-83
2023/06/08 13:50:54;;;;;;;;;9.00;7.67;;;;;;;;5010578;28;45328;-83
2023/06/08 13:53:19;;;;;;;;;9.33;6.33;;;;;;;;5036656;28;45629;-83
2023/06/08 13:55:45;;;;;;;;;8.00;4.50;;;;;;;;5037020;28;45628;-84
2023/06/08 13:58:11;;;;;;;;;7.50;7.25;;;;;;;;5036139;28;46304;-83
2023/06/08 14:00:36;;;;;;;;;10.00;6.33;;;;;;;;5034927;28;45536;-84
2023/06/08 14:03:02;;;;;;;;;8.00;7.00;;;;;;;;5021769;28;45485;-84
2023/06/08 14:05:28;;;;;;;;;9.75;7.25;;;;;;;;5035259;28;47227;-85
2023/06/08 14:07:53;;;;;;;;;7.00;5.50;;;;;;;;5035726;28;45821;-83
2023/06/08 14:10:19;;;;;;;;;8.50;6.75;;;;;;;;5036235;28;45857;-85
2023/06/08 14:12:45;;;;;;;;;7.00;4.75;;;;;;;;5035786;28;45821;-84
2023/06/08 14:15:10;;;;;;;;;9.25;6.00;;;;;;;;5036220;28;46277;-85
2023/06/08 14:17:35;;;;;;;;;7.50;4.25;;;;;;;;5035910;28;45408;-83
2023/06/08 14:20:01;;;;;;;;;7.00;5.33;;;;;;;;5036793;28;45377;-85
2023/06/08 14:22:26;;;;;;;;;11.33;7.33;;;;;;;;5037512;28;45330;-84
2023/06/08 14:24:51;;;;;;;;;6.33;6.33;;;;;;;;5035132;28;47164;-84
2023/06/08 14:27:16;;;;;;;;;8.33;5.67;;;;;;;;5018546;28;45851;-84
2023/06/08 14:29:41;;;;;;;;;7.67;5.33;;;;;;;;5044803;28;45365;-84
2023/06/08 14:32:07;;;;;;;;;7.00;7.00;;;;;;;;5051697;28;45605;-85